Have a Safe July 4th! 

Flight Track Log - Related Links

Times and Time Zones

All times are in EDT time to prevent confusion due to time zone crossing. See the SWA2236 flight status page for this flight to view local times or setup timezone preferences in your user account.

Time Position Orientation Groundspeed Altitude Reporting Facility
EDT Latitude Longitude Course Direction KTS MPH feet Rate Location/Type
Sun 10:59:01 PM 39.1500 -76.7333 284° West 198 228 3,000  Level Potomac TRACON
Sun 11:01:19 PM 39.1344 -76.5736 97° East 187 215 9,900 2,667 Climbing Washington Center
Sun 11:02:19 PM 39.1394 -76.4772 86° East 219 252 11,800 2,182 Climbing Washington Center
Sun 11:03:20 PM 39.1444 -76.3517 87° East 289 333 14,300 2,850 Climbing Washington Center
Sun 11:04:00 PM 39.1562 -76.5809 284° West  Level FlightAware Approximate
Sun 11:04:19 PM 39.1494 -76.2178 87° East 336 387 17,500  Level Washington Center
Sun 11:05:20 PM 39.1686 -76.0817 80° East 365 420 19,800 2,430 Climbing Washington Center
Sun 11:06:20 PM 39.1839 -75.9397 82° East 385 443 22,400 1,613 Climbing Washington Center
Sun 11:07:19 PM 39.2342 -75.8194 62° Northeast 378 435 23,000 303 Climbing Washington Center
Sun 11:08:19 PM 39.3156 -75.7203 43° Northeast 378 435 23,000 248 Level Washington Center
Sun 11:09:20 PM 39.3928 -75.6211 45° Northeast 384 442 23,500 1,438 Climbing Washington Center
Sun 11:10:20 PM 39.4719 -75.5189 45° Northeast 390 449 25,900 1,736 Climbing Washington Center
Sun 11:11:21 PM 39.5531 -75.4139 45° Northeast 396 456 27,000 555 Climbing Washington Center
Sun 11:12:19 PM 39.6319 -75.3114 45° Northeast 396 456 27,000 700 Level Washington Center
Sun 11:13:21 PM 39.7047 -75.2086 47° Northeast 396 456 28,400 916 Climbing Washington Center
Sun 11:14:30 PM 39.7997 -75.0697 48° Northeast 399 459 29,000 277 Climbing New York Center
Sun 11:15:31 PM 39.8742 -74.9661 47° Northeast 394 453 29,000  Level New York Center
Sun 11:16:32 PM 39.9467 -74.8622 48° Northeast 394 453 29,000  Level New York Center
Sun 11:17:30 PM 40.0389 -74.7889 31° Northeast 385 443 29,000  Level New York Center
Sun 11:18:30 PM 40.1339 -74.7536 16° North 384 442 29,000  Level New York Center
Sun 11:19:30 PM 40.2544 -74.7036 18° North 394 453 29,000  Level New York Center
Sun 11:20:32 PM 40.3578 -74.6631 17° North 394 453 29,000  Level New York Center
Sun 11:21:32 PM 40.4633 -74.6256 15° North 394 453 29,000  Level New York Center
Sun 11:22:31 PM 40.5686 -74.5850 16° North 394 453 29,000  Level New York Center
Sun 11:23:30 PM 40.6744 -74.5417 17° North 394 453 29,000  Level New York Center
Sun 11:24:30 PM 40.7797 -74.5008 16° North 394 453 29,000 -347 Level New York Center
Sun 11:25:31 PM 40.8853 -74.4600 16° North 389 448 28,300 -850 Descending New York Center
Sun 11:26:30 PM 40.9886 -74.4189 17° North 384 442 27,300 -950 Descending New York Center
Sun 11:27:31 PM 41.0981 -74.3781 16° North 384 442 26,400 -438 Descending New York Center
Sun 11:29:28 PM 41.3139 -74.2917 17° North 402 463 26,000 -136 Descending Boston Center
Sun 11:30:28 PM 41.4272 -74.2481 16° North 402 463 26,000  Level Boston Center
Sun 11:31:28 PM 41.5406 -74.2067 15° North 407 468 26,000 -1,200 Level Boston Center
Sun 11:32:28 PM 41.6517 -74.1597 18° North 412 474 23,600 -2,250 Descending Boston Center
Sun 11:33:28 PM 41.7606 -74.1183 16° North 410 472 21,500 -2,050 Descending Boston Center
Sun 11:34:28 PM 41.8528 -74.0844 15° North 378 435 19,500 -2,198 Descending Boston Center
Sun 11:35:09 PM 41.9261 -74.0558 16° North 364 419 17,800 -2,050 Descending Boston Center
Sun 11:36:28 PM 42.0394 -74.0083 17° North 355 409 15,400 -2,374 Descending Boston Center
Sun 11:37:28 PM 42.1400 -73.9689 16° North 344 396 12,300 -2,400 Descending Boston Center
Sun 11:38:28 PM 42.2175 -73.9342 18° North 339 390 10,600 -1,810 Descending Boston Center
Sun 11:39:24 PM 42.2972 -73.9053 15° North 277 319 8,800 -2,017 Descending Boston Center
Sun 11:40:24 PM 42.3725 -73.8733 17° North 270 311 6,700 -1,884 Descending Boston Center
Sun 11:41:25 PM 42.4417 -73.8467 16° North 262 302 5,000 -1,328 Descending Boston Center
Sun 11:42:26 PM 42.5047 -73.8172 19° North 230 265 4,000 -976 Descending Boston Center
Sun 11:43:28 PM 42.5631 -73.7989 13° North 219 252 3,000 -803 Descending Boston Center
Sun 11:44:33 PM 42.6131 -73.8056 354° North 155 178 2,300 -571 Descending Boston Center
Sun 11:45:34 PM 42.6569 -73.8008 North 155 178 1,800 -645 Descending Boston Center
Sun 11:46:34 PM 42.6964 -73.8044 356° North 134 154 1,000 -744 Descending Boston Center
Sun 11:47:35 PM 42.7361 -73.8111 353° North 132 152 300 -689 Descending Boston Center

Login

Don't have an account? Register now (free) for customized features, flight alerts, and more!